Time;durP1;ratioP1;P1;durP2;ratioP2;P2;SDS_P1;SDS_P2;PMS_P1;PMS_P2;Temp;Humidity;BMP_temperature;BMP_pressure;BME280_temperature;BME280_humidity;BME280_pressure;Samples;Min_cycle;Max_cycle;Signal;HPM_P1;HPM_P2
2022/06/29 00:02:03;;;;;;;5.22;1.60;;;17.10;82.90;;;;;;5054488;28;20036;-46
2022/06/29 00:04:28;;;;;;;5.80;1.90;;;17.10;82.90;;;;;;5053615;28;20036;-46
2022/06/29 00:06:56;;;;;;;6.97;1.85;;;17.10;82.80;;;;;;5055288;28;20040;-45
2022/06/29 00:09:22;;;;;;;3.65;1.90;;;17.10;82.60;;;;;;5062764;28;20024;-47
2022/06/29 00:11:50;;;;;;;9.50;2.42;;;17.10;82.80;;;;;;5034652;28;20041;-46
2022/06/29 00:14:15;;;;;;;4.85;1.65;;;17.10;82.90;;;;;;5035266;28;20057;-46
2022/06/29 00:16:41;;;;;;;6.32;2.20;;;17.10;83.30;;;;;;5035055;28;20115;-47
2022/06/29 00:19:07;;;;;;;5.00;2.10;;;17.10;83.30;;;;;;5035590;28;20088;-47
2022/06/29 00:21:33;;;;;;;3.83;2.05;;;17.00;83.50;;;;;;5034897;28;20053;-46
2022/06/29 00:24:01;;;;;;;4.18;2.05;;;17.00;83.60;;;;;;5049035;28;20036;-46
2022/06/29 00:26:27;;;;;;;5.13;2.40;;;16.90;83.50;;;;;;5053704;28;20470;-46
2022/06/29 00:28:53;;;;;;;4.22;2.10;;;16.90;83.40;;;;;;5041679;28;20100;-46
2022/06/29 00:31:21;;;;;;;4.35;2.50;;;16.90;83.10;;;;;;5051392;28;20029;-46
2022/06/29 00:33:49;;;;;;;4.50;2.05;;;16.90;83.30;;;;;;5042482;28;20454;-46
2022/06/29 00:36:16;;;;;;;4.63;2.35;;;16.90;83.20;;;;;;5034585;28;20100;-49
2022/06/29 00:38:42;;;;;;;6.35;2.67;;;16.90;83.30;;;;;;5035335;28;20029;-46
2022/06/29 00:41:10;;;;;;;5.25;2.38;;;16.90;83.40;;;;;;5034207;28;20132;-47
2022/06/29 00:43:42;;;;;;;3.60;2.30;;;16.90;83.40;;;;;;5034967;28;20113;-46
2022/06/29 00:46:08;;;;;;;5.63;2.13;;;16.90;83.50;;;;;;5034554;28;20612;-46
2022/06/29 00:48:36;;;;;;;4.40;2.53;;;16.90;83.60;;;;;;5041239;28;20048;-46
2022/06/29 00:51:03;;;;;;;11.98;3.30;;;16.80;83.60;;;;;;5056297;28;20051;-46
2022/06/29 00:53:32;;;;;;;7.10;3.03;;;16.80;83.80;;;;;;5054051;28;20021;-47
2022/06/29 00:56:01;;;;;;;5.70;3.05;;;16.90;83.90;;;;;;5046243;28;20544;-46
2022/06/29 00:58:28;;;;;;;5.50;2.58;;;16.80;84.00;;;;;;5033732;28;20034;-46
2022/06/29 01:01:03;;;;;;;4.38;2.63;;;16.80;84.10;;;;;;5054462;28;20032;-46
2022/06/29 01:03:28;;;;;;;6.80;3.00;;;16.70;84.30;;;;;;5067024;28;20025;-46
2022/06/29 01:05:54;;;;;;;4.88;3.03;;;16.70;84.30;;;;;;5041062;28;20361;-46
2022/06/29 01:08:20;;;;;;;6.97;2.83;;;16.70;84.50;;;;;;5060078;28;20020;-46
2022/06/29 01:10:46;;;;;;;8.23;3.70;;;16.70;84.50;;;;;;5054449;28;20350;-46
2022/06/29 01:13:14;;;;;;;5.43;3.25;;;16.60;84.90;;;;;;5074441;28;20036;-46
2022/06/29 01:15:40;;;;;;;4.80;3.22;;;16.60;85.00;;;;;;5066520;28;20115;-46
2022/06/29 01:18:11;;;;;;;6.07;3.20;;;16.70;85.30;;;;;;5053326;28;20029;-45
2022/06/29 01:20:36;;;;;;;5.57;3.25;;;16.60;85.30;;;;;;5051471;28;20093;-46
2022/06/29 01:23:02;;;;;;;6.40;3.58;;;16.60;85.60;;;;;;5053660;28;20029;-47
2022/06/29 01:25:28;;;;;;;6.07;3.67;;;16.60;85.60;;;;;;5053799;28;20024;-46
2022/06/29 01:27:54;;;;;;;5.95;3.35;;;16.60;85.70;;;;;;5052429;28;20056;-47
2022/06/29 01:30:19;;;;;;;5.28;3.55;;;16.60;85.80;;;;;;5035412;28;20037;-47
2022/06/29 01:32:45;;;;;;;4.63;3.45;;;16.60;86.00;;;;;;5053536;28;20143;-49
2022/06/29 01:35:13;;;;;;;5.65;3.28;;;16.50;86.10;;;;;;5054606;28;20063;-46
2022/06/29 01:37:42;;;;;;;5.97;3.75;;;16.50;86.20;;;;;;5052823;28;20806;-46
2022/06/29 01:40:10;;;;;;;8.93;4.10;;;16.50;86.40;;;;;;5062230;28;20045;-47
2022/06/29 01:42:36;;;;;;;6.45;3.75;;;16.50;86.40;;;;;;5055489;28;20068;-45
2022/06/29 01:45:02;;;;;;;4.82;3.65;;;16.40;86.50;;;;;;5053180;28;20434;-47
2022/06/29 01:47:28;;;;;;;9.00;3.53;;;16.40;86.50;;;;;;5039676;28;20025;-47
2022/06/29 01:49:53;;;;;;;8.20;4.18;;;16.50;86.60;;;;;;5052999;28;20151;-46
2022/06/29 01:52:19;;;;;;;6.22;3.63;;;16.40;86.60;;;;;;5036179;28;20105;-46
2022/06/29 01:54:45;;;;;;;8.60;4.60;;;16.40;86.60;;;;;;5048272;28;20025;-46
2022/06/29 01:57:10;;;;;;;8.93;3.85;;;16.40;86.70;;;;;;5051220;28;20025;-46
2022/06/29 01:59:36;;;;;;;7.10;4.10;;;16.40;86.80;;;;;;5055387;28;20106;-47
2022/06/29 02:02:02;;;;;;;6.25;3.90;;;16.40;86.70;;;;;;5053980;28;20098;-46
2022/06/29 02:04:27;;;;;;;8.50;4.30;;;16.40;86.60;;;;;;5051215;28;20068;-46
2022/06/29 02:06:55;;;;;;;5.60;3.95;;;16.40;86.60;;;;;;5051413;28;20343;-47
2022/06/29 02:09:21;;;;;;;5.28;4.00;;;16.40;86.50;;;;;;5054271;28;20044;-46
2022/06/29 02:11:47;;;;;;;5.32;3.95;;;16.40;86.50;;;;;;5052094;28;20037;-45
2022/06/29 02:14:13;;;;;;;7.32;3.88;;;16.40;86.30;;;;;;5052163;28;20418;-46
2022/06/29 02:16:39;;;;;;;5.63;4.38;;;16.40;86.30;;;;;;5057349;28;20094;-46
2022/06/29 02:19:05;;;;;;;5.00;3.72;;;16.30;86.50;;;;;;5052277;28;20029;-46
2022/06/29 02:21:33;;;;;;;5.45;4.25;;;16.30;86.50;;;;;;5049504;28;20462;-45
2022/06/29 02:23:58;;;;;;;6.45;3.95;;;16.40;86.50;;;;;;5052284;28;20029;-45
2022/06/29 02:26:24;;;;;;;8.43;4.20;;;16.40;86.20;;;;;;5057688;28;20457;-46
2022/06/29 02:28:50;;;;;;;5.50;3.85;;;16.40;86.20;;;;;;5050683;28;20426;-47
2022/06/29 02:36:43;;;;;;;6.50;3.78;;;16.40;86.20;;;;;;5054948;28;20047;-46
2022/06/29 02:39:09;;;;;;;7.05;4.40;;;16.40;86.00;;;;;;5052182;28;20021;-45
2022/06/29 02:41:34;;;;;;;6.57;3.90;;;16.30;86.00;;;;;;5054669;28;20092;-45
2022/06/29 02:44:00;;;;;;;6.60;4.00;;;16.30;86.00;;;;;;5052055;28;20449;-45
2022/06/29 02:46:26;;;;;;;5.25;4.35;;;16.30;86.10;;;;;;5051349;28;20075;-46
2022/06/29 02:48:51;;;;;;;6.10;4.63;;;16.30;86.10;;;;;;5052019;28;20029;-45
2022/06/29 02:51:17;;;;;;;5.47;3.53;;;16.30;86.00;;;;;;5054320;28;20518;-45
2022/06/29 02:53:43;;;;;;;5.32;3.58;;;16.30;86.00;;;;;;5054276;28;20045;-45
2022/06/29 02:56:08;;;;;;;5.50;3.63;;;16.20;86.00;;;;;;5053681;28;20116;-45
2022/06/29 02:58:34;;;;;;;5.53;3.83;;;16.20;85.90;;;;;;5051818;28;20361;-46
2022/06/29 03:01:02;;;;;;;6.28;3.70;;;16.20;86.10;;;;;;5054978;28;20025;-46
2022/06/29 03:03:30;;;;;;;7.45;3.78;;;16.20;86.00;;;;;;5051347;28;20025;-45
2022/06/29 03:05:56;;;;;;;5.95;4.40;;;16.10;86.00;;;;;;5051090;28;20877;-46
2022/06/29 03:08:21;;;;;;;6.32;4.40;;;16.00;85.80;;;;;;5044047;28;20096;-46
2022/06/29 03:10:49;;;;;;;7.00;4.05;;;16.00;86.10;;;;;;5070248;28;20697;-46
2022/06/29 03:13:15;;;;;;;4.38;3.53;;;16.00;86.10;;;;;;5056002;28;20041;-47
2022/06/29 03:15:40;;;;;;;5.65;3.90;;;15.90;85.90;;;;;;5056688;28;20162;-45
2022/06/29 03:18:06;;;;;;;6.40;3.78;;;15.90;85.70;;;;;;5050960;28;20304;-46
2022/06/29 03:20:32;;;;;;;5.63;3.72;;;15.90;85.40;;;;;;5052262;28;20037;-45
2022/06/29 03:22:58;;;;;;;5.10;3.70;;;15.90;85.40;;;;;;5050538;28;20017;-48
2022/06/29 03:25:23;;;;;;;5.85;3.67;;;15.90;85.20;;;;;;5053692;28;20035;-46
2022/06/29 03:27:51;;;;;;;6.45;3.88;;;15.90;85.00;;;;;;5051745;28;20052;-46
2022/06/29 03:30:18;;;;;;;6.63;3.65;;;15.90;84.80;;;;;;5052870;28;20719;-49
2022/06/29 03:32:44;;;;;;;6.47;3.83;;;16.00;84.80;;;;;;5051502;28;20487;-46
2022/06/29 03:35:11;;;;;;;7.18;3.53;;;16.00;84.60;;;;;;5051948;28;20032;-45
2022/06/29 03:37:37;;;;;;;6.13;3.83;;;16.00;84.50;;;;;;5071706;28;20048;-44
2022/06/29 03:40:03;;;;;;;4.88;3.30;;;16.00;84.40;;;;;;5069070;28;20434;-45
2022/06/29 03:42:29;;;;;;;7.30;3.90;;;16.10;84.40;;;;;;5050966;28;20029;-46
2022/06/29 03:44:55;;;;;;;6.38;3.35;;;16.10;84.30;;;;;;5051970;28;20428;-46
2022/06/29 03:47:22;;;;;;;6.93;4.55;;;16.10;84.30;;;;;;5053105;28;20053;-46
2022/06/29 03:49:52;;;;;;;6.60;4.60;;;16.20;84.20;;;;;;5055557;28;20052;-45
2022/06/29 03:52:17;;;;;;;6.50;3.80;;;16.10;84.30;;;;;;5036208;28;20148;-46
2022/06/29 03:54:43;;;;;;;6.45;3.95;;;16.20;84.30;;;;;;5035379;28;20112;-45
2022/06/29 03:57:09;;;;;;;7.65;3.65;;;16.20;84.40;;;;;;5045737;28;20044;-47
2022/06/29 03:59:34;;;;;;;5.93;3.25;;;16.20;84.20;;;;;;5053985;28;20100;-45
2022/06/29 04:02:00;;;;;;;4.55;3.38;;;16.20;84.20;;;;;;5061283;28;20063;-46
2022/06/29 04:04:26;;;;;;;3.88;3.25;;;16.20;84.30;;;;;;5055109;28;20040;-47
2022/06/29 04:06:51;;;;;;;6.78;3.85;;;16.20;84.30;;;;;;5050708;28;20028;-47
2022/06/29 04:09:17;;;;;;;6.10;4.38;;;16.20;84.20;;;;;;5073866;28;20357;-47
2022/06/29 04:11:54;;;;;;;4.53;3.67;;;16.20;84.10;;;;;;5041877;28;20717;-46
2022/06/29 04:14:22;;;;;;;6.70;3.70;;;16.30;84.10;;;;;;5035012;28;20499;-46
2022/06/29 04:16:56;;;;;;;4.53;3.65;;;16.30;83.90;;;;;;5036161;28;20036;-46
2022/06/29 04:19:22;;;;;;;6.93;3.33;;;16.30;83.90;;;;;;5051904;28;20419;-45
2022/06/29 04:21:49;;;;;;;5.80;3.58;;;16.40;84.00;;;;;;5066036;28;20053;-45
2022/06/29 04:24:15;;;;;;;5.20;4.00;;;16.40;83.90;;;;;;5053687;28;20047;-46
2022/06/29 04:26:42;;;;;;;9.00;5.00;;;16.40;83.80;;;;;;5051489;28;20025;-48
2022/06/29 04:29:08;;;;;;;6.68;4.22;;;16.40;83.70;;;;;;5050901;28;20039;-46
2022/06/29 04:31:33;;;;;;;5.32;4.05;;;16.40;83.70;;;;;;5051795;28;20029;-45
2022/06/29 04:34:00;;;;;;;7.47;3.85;;;16.40;83.80;;;;;;5053823;28;20872;-46
2022/06/29 04:36:26;;;;;;;5.72;4.10;;;16.40;83.50;;;;;;5052583;28;20036;-47
2022/06/29 04:38:56;;;;;;;5.03;3.63;;;16.40;83.60;;;;;;5052919;28;20048;-49
2022/06/29 04:41:21;;;;;;;;;;;16.40;83.70;;;;;;5053648;28;20409;-46
2022/06/29 04:43:48;;;;;;;4.13;3.70;;;16.50;83.70;;;;;;5052841;28;19917;-46
2022/06/29 04:46:20;;;;;;;6.78;4.15;;;16.50;83.50;;;;;;5052528;28;20362;-46
2022/06/29 04:49:04;;;;;;;7.55;4.10;;;16.50;83.50;;;;;;5050391;28;20519;-47
2022/06/29 04:51:31;;;;;;;6.28;4.53;;;16.50;83.30;;;;;;5053088;28;20032;-47
2022/06/29 04:53:57;;;;;;;5.97;4.35;;;16.50;83.50;;;;;;5052232;28;20079;-46
2022/06/29 04:56:25;;;;;;;5.32;4.28;;;16.50;83.50;;;;;;5053149;28;20521;-46
2022/06/29 04:58:53;;;;;;;5.68;4.07;;;16.60;83.40;;;;;;5053581;28;20048;-46
2022/06/29 05:01:20;;;;;;;5.68;3.90;;;16.70;83.40;;;;;;5051454;28;20033;-47
2022/06/29 05:03:46;;;;;;;7.35;4.85;;;16.80;83.30;;;;;;5085912;28;20022;-47
2022/06/29 05:06:12;;;;;;;6.10;4.32;;;16.90;83.00;;;;;;5052236;28;20032;-48
2022/06/29 05:08:38;;;;;;;6.18;4.15;;;16.90;82.60;;;;;;5061627;28;20036;-49
2022/06/29 05:11:03;;;;;;;4.90;4.05;;;16.90;82.40;;;;;;5053106;28;20056;-48
2022/06/29 05:13:29;;;;;;;6.13;4.03;;;17.10;82.30;;;;;;5052799;28;20039;-46
2022/06/29 05:15:57;;;;;;;5.60;3.88;;;17.20;82.10;;;;;;5051882;28;20040;-46
2022/06/29 05:18:24;;;;;;;6.80;4.15;;;17.20;81.90;;;;;;5052598;28;20025;-47
2022/06/29 05:20:50;;;;;;;6.65;4.00;;;17.30;81.90;;;;;;5051776;28;20107;-46
2022/06/29 05:23:16;;;;;;;4.80;3.50;;;17.40;81.70;;;;;;5053401;28;20096;-46
2022/06/29 05:25:41;;;;;;;6.47;3.55;;;17.50;81.20;;;;;;5052413;28;20021;-48
2022/06/29 05:28:08;;;;;;;6.20;3.50;;;17.60;81.20;;;;;;5052580;28;20480;-47
2022/06/29 05:30:34;;;;;;;5.68;4.05;;;17.60;80.80;;;;;;5047638;28;20025;-46
2022/06/29 05:33:00;;;;;;;4.35;3.60;;;17.60;80.80;;;;;;5052462;28;20500;-50
2022/06/29 05:35:29;;;;;;;4.18;2.95;;;17.60;80.50;;;;;;5052363;28;20460;-47
2022/06/29 05:37:54;;;;;;;4.03;3.17;;;17.70;80.50;;;;;;5052391;28;20033;-46
2022/06/29 05:40:20;;;;;;;5.15;3.35;;;17.70;80.70;;;;;;5049478;28;20578;-47
2022/06/29 05:42:46;;;;;;;5.65;3.55;;;17.80;80.40;;;;;;5051641;28;20108;-49
2022/06/29 05:45:11;;;;;;;4.65;2.95;;;17.80;80.20;;;;;;5047743;28;20025;-48
2022/06/29 05:47:39;;;;;;;5.03;3.30;;;17.90;79.70;;;;;;5052341;28;20660;-47
2022/06/29 05:50:10;;;;;;;5.72;3.60;;;18.10;79.50;;;;;;5052298;28;20021;-50
2022/06/29 05:52:37;;;;;;;4.22;3.13;;;18.20;79.10;;;;;;5052404;28;20052;-47
2022/06/29 05:55:05;;;;;;;5.65;3.38;;;18.40;78.80;;;;;;5049226;28;20037;-46
2022/06/29 05:57:33;;;;;;;4.65;3.38;;;18.40;78.10;;;;;;5052547;28;20078;-47
2022/06/29 06:00:01;;;;;;;4.15;2.92;;;18.50;77.50;;;;;;5048016;28;20025;-48
2022/06/29 06:02:27;;;;;;;6.00;3.45;;;18.60;77.70;;;;;;5052682;28;20037;-47
2022/06/29 06:04:55;;;;;;;4.72;3.15;;;18.80;77.30;;;;;;5052717;28;20033;-48
2022/06/29 06:07:23;;;;;;;5.57;3.03;;;18.90;76.60;;;;;;5052097;28;20025;-49
2022/06/29 06:09:48;;;;;;;4.10;2.85;;;19.00;76.40;;;;;;5091741;28;20059;-49
2022/06/29 06:12:14;;;;;;;5.50;3.00;;;19.10;76.10;;;;;;5035192;28;20068;-50
2022/06/29 06:14:40;;;;;;;4.28;3.15;;;19.30;76.10;;;;;;5039503;28;20044;-47
2022/06/29 06:17:05;;;;;;;5.07;2.28;;;19.60;75.20;;;;;;5041908;28;20112;-47
2022/06/29 06:19:31;;;;;;;4.85;2.65;;;19.90;73.80;;;;;;5046259;28;20024;-48
2022/06/29 06:21:57;;;;;;;3.40;2.17;;;20.40;73.80;;;;;;5044622;28;20462;-49
2022/06/29 06:24:22;;;;;;;5.57;3.30;;;20.90;71.20;;;;;;5034730;28;20021;-50
2022/06/29 06:26:48;;;;;;;6.72;2.53;;;21.00;70.30;;;;;;5040290;28;20035;-50
2022/06/29 06:29:13;;;;;;;4.53;3.20;;;21.10;69.60;;;;;;5065935;28;20083;-47
2022/06/29 06:31:39;;;;;;;6.72;3.10;;;20.90;68.90;;;;;;5076989;28;20507;-47
2022/06/29 06:34:05;;;;;;;3.83;3.00;;;20.80;69.80;;;;;;5043857;28;20036;-48
2022/06/29 06:36:30;;;;;;;6.72;2.33;;;20.80;69.90;;;;;;5052250;28;20040;-48
2022/06/29 06:38:58;;;;;;;3.55;2.80;;;20.80;70.30;;;;;;5034053;28;20042;-49
2022/06/29 06:41:27;;;;;;;4.13;2.67;;;20.70;70.20;;;;;;5050272;28;20048;-50
2022/06/29 06:43:57;;;;;;;4.40;2.90;;;20.60;70.40;;;;;;5051481;28;20504;-47
2022/06/29 06:46:24;;;;;;;4.05;2.53;;;20.60;70.80;;;;;;5069068;28;20064;-48
2022/06/29 06:48:53;;;;;;;4.35;2.65;;;20.60;71.70;;;;;;5048744;28;20029;-48
2022/06/29 06:51:21;;;;;;;5.27;2.63;;;20.50;72.10;;;;;;5038700;28;21498;-49
2022/06/29 06:53:47;;;;;;;4.90;2.67;;;20.60;72.70;;;;;;5065296;28;20124;-46
2022/06/29 06:56:14;;;;;;;5.05;2.90;;;20.50;71.90;;;;;;5051509;28;20048;-47
2022/06/29 06:58:41;;;;;;;3.65;2.45;;;20.30;71.80;;;;;;5049948;28;20017;-47
2022/06/29 07:01:07;;;;;;;5.05;3.28;;;20.30;72.80;;;;;;5043935;28;20033;-47
2022/06/29 07:03:37;;;;;;;3.42;2.50;;;20.40;72.40;;;;;;5060893;28;20033;-46
2022/06/29 07:06:08;;;;;;;5.15;3.03;;;20.80;72.60;;;;;;5070859;28;20044;-46
2022/06/29 07:08:35;;;;;;;4.15;2.40;;;21.10;72.30;;;;;;5050294;28;20024;-47
2022/06/29 07:11:02;;;;;;;4.93;3.25;;;21.20;71.50;;;;;;5047921;28;20048;-47
2022/06/29 07:13:33;;;;;;;4.57;2.45;;;21.30;71.30;;;;;;5053083;28;20060;-47
2022/06/29 07:15:59;;;;;;;3.22;2.67;;;21.50;71.60;;;;;;5039011;28;20032;-47
2022/06/29 07:18:24;;;;;;;6.32;2.70;;;21.70;70.60;;;;;;5049503;28;20067;-47
2022/06/29 07:20:50;;;;;;;3.58;2.30;;;21.90;69.60;;;;;;5051130;28;20067;-49
2022/06/29 07:23:20;;;;;;;4.50;3.25;;;22.40;67.90;;;;;;5049239;28;20021;-47
2022/06/29 07:25:46;;;;;;;7.68;2.50;;;22.90;66.50;;;;;;5050408;28;20025;-49
2022/06/29 07:28:12;;;;;;;4.22;2.33;;;23.40;64.20;;;;;;5051799;28;20028;-47
2022/06/29 07:30:37;;;;;;;6.32;2.25;;;23.90;64.00;;;;;;5055340;28;20048;-50
2022/06/29 07:33:05;;;;;;;3.70;2.45;;;24.30;60.90;;;;;;5052978;28;20020;-48
2022/06/29 07:35:33;;;;;;;3.53;2.20;;;24.50;59.90;;;;;;5054844;28;20023;-47
2022/06/29 07:37:59;;;;;;;3.97;2.10;;;25.00;58.90;;;;;;5054506;28;20033;-47
2022/06/29 07:40:25;;;;;;;3.50;1.95;;;25.20;57.50;;;;;;5058467;28;20044;-50
2022/06/29 07:42:50;;;;;;;4.93;2.08;;;25.40;58.90;;;;;;5050874;28;20128;-47
2022/06/29 07:45:16;;;;;;;4.15;2.30;;;25.80;57.00;;;;;;5055555;28;20457;-47
2022/06/29 07:47:42;;;;;;;4.82;2.00;;;25.90;55.80;;;;;;5051988;28;20040;-49
2022/06/29 07:50:11;;;;;;;2.85;1.77;;;26.20;55.50;;;;;;5053535;28;20575;-47
2022/06/29 07:52:37;;;;;;;4.30;2.05;;;26.60;56.60;;;;;;5052602;28;20075;-47
2022/06/29 07:55:03;;;;;;;4.85;2.08;;;26.80;50.90;;;;;;5044905;28;20062;-48
2022/06/29 07:57:29;;;;;;;5.30;2.15;;;26.90;52.30;;;;;;5056885;28;20429;-47
2022/06/29 07:59:55;;;;;;;7.85;2.30;;;27.30;53.30;;;;;;5054259;28;20029;-47
2022/06/29 08:02:20;;;;;;;4.78;2.28;;;27.10;51.80;;;;;;5049251;28;20033;-47
2022/06/29 08:04:46;;;;;;;3.00;1.85;;;27.40;51.80;;;;;;5054405;28;20016;-47
2022/06/29 08:07:12;;;;;;;4.50;2.03;;;27.70;51.70;;;;;;5048955;28;20025;-46
2022/06/29 08:09:37;;;;;;;3.33;1.75;;;28.00;51.00;;;;;;5056037;28;20025;-47
2022/06/29 08:12:03;;;;;;;4.50;1.77;;;28.20;50.20;;;;;;5055367;28;20034;-47
2022/06/29 08:14:29;;;;;;;3.65;2.00;;;28.20;50.60;;;;;;5054283;28;20029;-47
2022/06/29 08:16:55;;;;;;;2.70;1.60;;;28.40;50.10;;;;;;5056990;28;20091;-48
2022/06/29 08:19:20;;;;;;;4.78;1.85;;;28.40;49.30;;;;;;5051653;28;20107;-47
2022/06/29 08:21:46;;;;;;;3.28;1.90;;;28.20;50.80;;;;;;5052163;28;20033;-49
2022/06/29 08:24:12;;;;;;;4.60;2.15;;;28.40;50.00;;;;;;5053210;28;20017;-47
2022/06/29 08:26:37;;;;;;;5.72;2.10;;;28.30;49.60;;;;;;5045720;28;20112;-48
2022/06/29 08:29:04;;;;;;;2.65;1.70;;;28.40;49.00;;;;;;5040714;28;20035;-49
2022/06/29 08:31:32;;;;;;;3.90;1.85;;;28.00;48.60;;;;;;5053562;28;20086;-47
2022/06/29 08:33:59;;;;;;;3.45;2.15;;;28.20;50.20;;;;;;5051546;28;20120;-48
2022/06/29 08:36:24;;;;;;;4.57;2.13;;;28.60;49.80;;;;;;5064550;28;20074;-47
2022/06/29 08:38:50;;;;;;;3.28;1.98;;;28.70;51.20;;;;;;5050948;28;20055;-49
2022/06/29 08:41:16;;;;;;;8.77;2.80;;;28.70;51.00;;;;;;5053497;28;20371;-48
2022/06/29 08:43:43;;;;;;;5.38;2.40;;;28.90;49.10;;;;;;5051377;28;20021;-48
2022/06/29 08:46:12;;;;;;;4.78;2.10;;;28.90;51.80;;;;;;5053989;28;20108;-47
2022/06/29 08:48:38;;;;;;;4.25;2.17;;;29.30;53.60;;;;;;5057201;28;20029;-49
2022/06/29 08:51:06;;;;;;;2.67;2.03;;;29.50;51.20;;;;;;5053019;28;20404;-47
2022/06/29 08:53:32;;;;;;;4.80;2.83;;;29.20;50.60;;;;;;5053421;28;20033;-47
2022/06/29 08:56:00;;;;;;;3.97;2.47;;;29.30;51.10;;;;;;5051582;28;20048;-47
2022/06/29 08:58:26;;;;;;;7.20;2.80;;;29.30;52.30;;;;;;5034673;28;20485;-48
2022/06/29 09:00:53;;;;;;;3.08;2.15;;;28.60;51.10;;;;;;5045686;28;20032;-47
2022/06/29 09:03:22;;;;;;;3.67;1.80;;;28.40;53.50;;;;;;5044519;28;20021;-48
2022/06/29 09:05:54;;;;;;;4.75;2.25;;;28.40;55.70;;;;;;5044564;28;20124;-48
2022/06/29 09:08:21;;;;;;;5.47;2.40;;;28.70;52.40;;;;;;5045673;28;20040;-47
2022/06/29 09:10:47;;;;;;;4.13;2.50;;;28.50;54.40;;;;;;5066825;28;20347;-47
2022/06/29 09:13:19;;;;;;;7.78;3.22;;;28.70;51.30;;;;;;5045347;28;20101;-49
2022/06/29 09:15:45;;;;;;;6.63;2.67;;;28.60;53.20;;;;;;5049028;28;20025;-47
2022/06/29 09:18:37;;;;;;;5.57;2.55;;;28.50;51.30;;;;;;5054684;28;20529;-47
2022/06/29 09:21:05;;;;;;;7.95;3.28;;;28.90;53.60;;;;;;5045730;28;20069;-47
2022/06/29 09:23:32;;;;;;;6.15;3.55;;;28.80;54.20;;;;;;5052351;28;20107;-47
2022/06/29 09:25:58;;;;;;;6.50;3.72;;;28.40;54.70;;;;;;5066930;28;20119;-47
2022/06/29 09:28:31;;;;;;;6.10;3.45;;;28.40;55.70;;;;;;5051358;28;20400;-48
2022/06/29 09:30:58;;;;;;;4.57;2.97;;;28.40;55.90;;;;;;5051636;28;20112;-46
2022/06/29 09:33:26;;;;;;;6.15;4.32;;;28.60;56.10;;;;;;5053393;28;20025;-47
2022/06/29 09:36:17;;;;;;;5.25;3.92;;;28.60;55.10;;;;;;5063686;28;20465;-47
2022/06/29 09:38:43;;;;;;;5.80;3.38;;;28.60;57.30;;;;;;5051257;28;20159;-48
2022/06/29 09:41:15;;;;;;;5.40;4.05;;;28.30;54.60;;;;;;5049732;28;20044;-47
2022/06/29 09:43:45;;;;;;;4.88;3.78;;;28.10;56.90;;;;;;5051046;28;20103;-47
2022/06/29 09:46:13;;;;;;;4.47;3.90;;;27.90;59.50;;;;;;5046434;28;20021;-46
2022/06/29 09:48:43;;;;;;;4.55;3.17;;;28.10;59.10;;;;;;5083618;28;20376;-47
2022/06/29 09:54:09;;;;;;;3.70;2.97;;;28.60;58.60;;;;;;5049930;28;19935;-49
2022/06/29 09:56:35;;;;;;;4.55;3.45;;;28.40;57.50;;;;;;5048601;28;20047;-49
2022/06/29 09:59:05;;;;;;;5.53;3.60;;;28.20;56.90;;;;;;5050151;28;20036;-47
2022/06/29 10:04:16;;;;;;;6.28;3.90;;;27.30;59.70;;;;;;5055667;28;20031;-48
2022/06/29 10:06:43;;;;;;;5.57;3.53;;;27.30;60.50;;;;;;5046827;28;20018;-46
2022/06/29 10:09:09;;;;;;;7.68;5.05;;;27.50;59.00;;;;;;5058911;28;20115;-50
2022/06/29 10:15:05;;;;;;;6.90;4.45;;;28.10;59.60;;;;;;5050987;28;20449;-48
2022/06/29 10:17:46;;;;;;;5.57;4.68;;;28.30;59.00;;;;;;5042730;28;20082;-47
2022/06/29 10:20:41;;;;;;;6.90;4.80;;;28.50;57.10;;;;;;5058930;28;20028;-49
2022/06/29 10:23:07;;;;;;;7.55;4.38;;;28.40;59.90;;;;;;5045474;28;20413;-47
2022/06/29 10:25:32;;;;;;;9.60;5.65;;;28.40;58.40;;;;;;5050303;28;20128;-47
2022/06/29 10:28:15;;;;;;;5.88;5.30;;;28.00;57.30;;;;;;5047902;28;20714;-49
2022/06/29 10:30:42;;;;;;;8.18;5.53;;;28.30;59.20;;;;;;5052340;28;20033;-49
2022/06/29 10:33:29;;;;;;;8.75;4.97;;;28.30;57.60;;;;;;5041386;28;20044;-48
2022/06/29 10:36:03;;;;;;;9.00;5.43;;;28.30;58.70;;;;;;5051242;28;20057;-48
2022/06/29 10:38:29;;;;;;;5.38;4.88;;;28.50;59.30;;;;;;5050702;28;20543;-51
2022/06/29 10:43:07;;;;;;;7.40;4.80;;;28.40;56.20;;;;;;5047378;28;20049;-49
2022/06/29 10:43:58;;;;;;;5.63;5.00;;;28.40;60.50;;;;;;5051249;28;20040;-47
2022/06/29 10:46:24;;;;;;;7.60;5.22;;;28.20;59.00;;;;;;5051300;28;20028;-48
2022/06/29 10:49:18;;;;;;;7.43;4.65;;;28.20;58.80;;;;;;5052138;28;20412;-47
2022/06/29 10:51:47;;;;;;;5.55;4.68;;;27.90;60.80;;;;;;5065809;28;20564;-48
2022/06/29 10:54:27;;;;;;;6.55;3.85;;;28.20;56.50;;;;;;5051425;28;20037;-47
2022/06/29 10:56:56;;;;;;;6.38;4.45;;;28.50;58.00;;;;;;5055594;28;20056;-51
2022/06/29 10:59:34;;;;;;;3.97;3.40;;;28.40;57.80;;;;;;5046757;28;20459;-48
2022/06/29 11:02:13;;;;;;;6.38;3.85;;;28.60;56.80;;;;;;5058188;28;20032;-51
2022/06/29 11:04:39;;;;;;;;;;;28.60;58.00;;;;;;5048772;28;20060;-48
2022/06/29 11:12:35;;;;;;;4.85;4.20;;;28.60;53.40;;;;;;5052670;28;20128;-49
2022/06/29 11:17:48;;;;;;;5.28;3.42;;;28.30;54.80;;;;;;5055077;28;20044;-47
2022/06/29 11:20:22;;;;;;;4.03;2.95;;;28.70;53.80;;;;;;5073484;28;20520;-49
2022/06/29 11:22:51;;;;;;;5.40;3.42;;;29.00;55.10;;;;;;5055555;28;20513;-47
2022/06/29 11:25:19;;;;;;;4.63;3.30;;;29.20;54.20;;;;;;5054394;28;20030;-48
2022/06/29 11:27:45;;;;;;;4.78;3.15;;;29.20;53.80;;;;;;5054950;28;20450;-47
2022/06/29 11:30:15;;;;;;;5.95;3.10;;;29.20;49.70;;;;;;5050821;28;20039;-47
2022/06/29 11:32:43;;;;;;;4.43;3.50;;;29.30;50.00;;;;;;5052489;28;20027;-47
2022/06/29 11:35:11;;;;;;;5.43;3.33;;;29.40;50.70;;;;;;5055720;28;20490;-49
2022/06/29 11:37:37;;;;;;;4.47;3.50;;;29.30;48.40;;;;;;5053901;28;20120;-50
2022/06/29 11:40:04;;;;;;;3.70;3.00;;;29.20;47.10;;;;;;5049993;28;20045;-47
2022/06/29 11:45:18;;;;;;;4.75;3.00;;;29.00;46.70;;;;;;5051505;28;20036;-48
2022/06/29 11:47:51;;;;;;;4.63;3.33;;;28.90;47.10;;;;;;5049965;28;20449;-48
2022/06/29 11:50:19;;;;;;;4.10;3.25;;;29.00;49.10;;;;;;5047506;28;20087;-48
2022/06/29 11:52:49;;;;;;;6.35;2.95;;;29.30;51.30;;;;;;5079721;28;20067;-49
2022/06/29 11:55:15;;;;;;;5.05;3.42;;;29.30;50.90;;;;;;5049800;28;20374;-51
2022/06/29 11:57:41;;;;;;;5.93;3.30;;;29.50;49.90;;;;;;5048682;28;20035;-47
2022/06/29 12:00:09;;;;;;;3.80;3.08;;;29.40;48.00;;;;;;5051021;28;20025;-48
2022/06/29 12:02:34;;;;;;;4.00;3.20;;;29.40;45.30;;;;;;5054345;28;20052;-47
2022/06/29 12:05:02;;;;;;;5.07;3.58;;;29.10;45.60;;;;;;5048774;28;20025;-47
2022/06/29 12:07:31;;;;;;;4.80;3.00;;;29.00;47.20;;;;;;5060163;28;20182;-54
2022/06/29 12:09:58;;;;;;;4.35;3.90;;;28.80;46.90;;;;;;5046678;28;20025;-54
2022/06/29 12:12:23;;;;;;;5.25;4.18;;;28.90;52.60;;;;;;5050795;28;20112;-47
2022/06/29 12:14:49;;;;;;;5.90;3.80;;;28.80;57.80;;;;;;5043807;28;20120;-49
2022/06/29 12:17:17;;;;;;;4.78;4.10;;;28.90;55.30;;;;;;5045101;28;20033;-51
2022/06/29 12:19:45;;;;;;;8.02;4.40;;;28.90;58.90;;;;;;5047268;28;20022;-48
2022/06/29 12:22:11;;;;;;;4.50;3.33;;;28.80;54.60;;;;;;5049813;28;20116;-49
2022/06/29 12:24:39;;;;;;;5.68;3.50;;;28.80;50.80;;;;;;5046775;28;20100;-48
2022/06/29 12:27:05;;;;;;;5.90;4.75;;;28.90;54.80;;;;;;5039707;28;20032;-47
2022/06/29 12:29:31;;;;;;;5.85;5.22;;;28.60;56.10;;;;;;5048563;28;20338;-48
2022/06/29 12:31:59;;;;;;;5.32;4.25;;;28.40;57.60;;;;;;5048422;28;20114;-47
2022/06/29 12:34:25;;;;;;;6.45;5.78;;;28.20;58.70;;;;;;5050082;28;20029;-51
2022/06/29 12:36:51;;;;;;;5.53;4.72;;;28.20;60.10;;;;;;5044575;28;20111;-49
2022/06/29 12:39:17;;;;;;;5.60;4.07;;;27.90;59.20;;;;;;5048981;28;20502;-49
2022/06/29 12:41:42;;;;;;;4.28;3.83;;;27.70;57.30;;;;;;5048539;28;20124;-49
2022/06/29 12:44:09;;;;;;;6.15;5.13;;;27.90;56.70;;;;;;5049161;28;20032;-47
2022/06/29 12:46:35;;;;;;;5.90;4.15;;;27.90;60.40;;;;;;5050196;28;20467;-47
2022/06/29 12:49:03;;;;;;;5.68;3.50;;;27.80;59.60;;;;;;5043714;28;20044;-47
2022/06/29 12:51:30;;;;;;;4.47;3.30;;;27.80;51.80;;;;;;5037370;28;20037;-47
2022/06/29 12:53:56;;;;;;;4.35;3.47;;;28.00;51.20;;;;;;5049839;28;20039;-46
2022/06/29 12:56:21;;;;;;;5.18;3.33;;;28.20;48.40;;;;;;5045324;28;20021;-50
2022/06/29 12:58:52;;;;;;;3.88;3.38;;;28.20;51.80;;;;;;5049874;28;20385;-48
2022/06/29 13:01:17;;;;;;;5.65;3.65;;;28.20;47.90;;;;;;5053448;28;20028;-47
2022/06/29 13:03:45;;;;;;;5.88;3.42;;;28.20;50.90;;;;;;5044253;28;20285;-47
2022/06/29 13:06:10;;;;;;;4.95;3.40;;;28.20;46.90;;;;;;5049260;28;20035;-47
2022/06/29 13:08:36;;;;;;;5.85;3.40;;;28.30;49.20;;;;;;5051629;28;20438;-48
2022/06/29 13:11:06;;;;;;;5.65;3.53;;;28.40;50.50;;;;;;5050264;28;20025;-49
2022/06/29 13:13:35;;;;;;;5.30;3.38;;;28.40;47.80;;;;;;5049429;28;20084;-50
2022/06/29 13:16:01;;;;;;;4.53;3.55;;;28.40;47.40;;;;;;5047469;28;20115;-50